Time;durP1;ratioP1;P1;durP2;ratioP2;P2;SDS_P1;SDS_P2;PMS_P1;PMS_P2;Temp;Humidity;BMP_temperature;BMP_pressure;BME280_temperature;BME280_humidity;BME280_pressure;Samples;Min_cycle;Max_cycle;Signal;HPM_P1;HPM_P2
2022/04/10 00:00:39;;;;;;;0.08;0.08;;;;;;;16.89;53.38;97737.06;6247804;22;20449;-73
2022/04/10 00:03:06;;;;;;;0.10;0.10;;;;;;;16.82;53.77;97734.22;6275131;22;20003;-73
2022/04/10 00:05:31;;;;;;;0.10;0.10;;;;;;;16.74;54.34;97735.94;6274891;22;20010;-73
2022/04/10 00:07:57;;;;;;;0.00;0.00;;;;;;;16.64;54.97;97729.16;6274805;22;20007;-73
2022/04/10 00:10:23;;;;;;;0.00;0.00;;;;;;;16.54;55.61;97737.00;6275121;22;20093;-74
2022/04/10 00:12:48;;;;;;;0.10;0.10;;;;;;;16.50;55.91;97736.91;6274873;22;20548;-73
2022/04/10 00:15:14;;;;;;;0.10;0.10;;;;;;;16.45;56.33;97731.78;6274944;22;20399;-74
2022/04/10 00:17:40;;;;;;;0.10;0.10;;;;;;;16.41;56.53;97739.78;6274954;22;20011;-73
2022/04/10 00:20:06;;;;;;;0.08;0.08;;;;;;;16.37;56.84;97733.50;6275060;22;20012;-73
2022/04/10 00:22:39;;;;;;;0.00;0.00;;;;;;;16.33;56.81;97727.22;6275013;22;20421;-73
2022/04/10 00:25:05;;;;;;;0.00;0.00;;;;;;;16.29;57.08;97727.13;6274643;22;20574;-73
2022/04/10 00:27:30;;;;;;;0.00;0.00;;;;;;;16.24;57.45;97730.09;6274992;22;20000;-73
2022/04/10 00:29:56;;;;;;;0.10;0.10;;;;;;;16.21;57.69;97727.28;6274370;22;20014;-73
2022/04/10 00:32:28;;;;;;;0.00;0.00;;;;;;;16.16;57.68;97717.53;6274640;22;20067;-73
2022/04/10 00:34:54;;;;;;;0.10;0.10;;;;;;;16.16;58.14;97714.84;6274634;22;20007;-73
2022/04/10 00:37:20;;;;;;;0.10;0.10;;;;;;;16.13;57.80;97704.75;6274889;22;20456;-73
2022/04/10 00:39:46;;;;;;;0.28;0.28;;;;;;;16.12;58.10;97709.34;6274548;22;20446;-73
2022/04/10 00:42:11;;;;;;;0.10;0.10;;;;;;;16.11;58.19;97707.00;6274605;22;20171;-73
2022/04/10 00:44:37;;;;;;;0.10;0.10;;;;;;;16.09;58.97;97710.06;6247247;22;20094;-73
2022/04/10 00:47:03;;;;;;;0.10;0.10;;;;;;;16.04;59.05;97718.41;6274798;22;20030;-73
2022/04/10 00:49:29;;;;;;;0.00;0.00;;;;;;;15.99;59.71;97719.44;6274801;22;20057;-73
2022/04/10 00:51:56;;;;;;;0.10;0.10;;;;;;;15.97;59.46;97724.38;6274484;22;20004;-73
2022/04/10 00:54:25;;;;;;;0.08;0.08;;;;;;;15.99;59.45;97724.81;6274682;22;20007;-73
2022/04/10 00:56:50;;;;;;;0.10;0.10;;;;;;;15.98;59.56;97725.19;6274341;22;20502;-73
2022/04/10 00:59:16;;;;;;;0.00;0.00;;;;;;;15.90;59.94;97728.81;6274365;22;20004;-73
2022/04/10 01:01:44;;;;;;;0.10;0.10;;;;;;;15.87;60.06;97732.16;6247272;22;20010;-73
2022/04/10 01:04:12;;;;;;;0.00;0.00;;;;;;;15.82;60.15;97727.81;6274744;22;20069;-73
2022/04/10 01:06:38;;;;;;;0.00;0.00;;;;;;;15.77;60.51;97728.81;6274297;22;20003;-73
2022/04/10 01:09:04;;;;;;;0.10;0.10;;;;;;;15.76;60.46;97732.63;6274608;22;20004;-73
2022/04/10 01:11:32;;;;;;;0.10;0.10;;;;;;;15.72;60.38;97728.28;6274575;22;20479;-73
2022/04/10 01:13:58;;;;;;;0.00;0.00;;;;;;;15.72;60.39;97728.28;6273921;22;20007;-73
2022/04/10 01:16:23;;;;;;;0.00;0.00;;;;;;;15.67;60.44;97722.00;6273986;22;20039;-73
2022/04/10 01:18:50;;;;;;;0.00;0.00;;;;;;;15.72;60.47;97745.25;6274285;22;20007;-73
2022/04/10 01:21:22;;;;;;;0.10;0.10;;;;;;;15.76;60.51;97742.63;6274484;22;20050;-73
2022/04/10 01:23:49;;;;;;;0.10;0.10;;;;;;;15.65;60.60;97747.72;6274186;22;20008;-73
2022/04/10 01:26:14;;;;;;;0.00;0.00;;;;;;;15.65;60.83;97755.81;6274294;22;20004;-73
2022/04/10 01:29:00;;;;;;;0.00;0.00;;;;;;;15.68;60.64;97749.72;6274182;22;20004;-73
2022/04/10 01:31:27;;;;;;;0.10;0.10;;;;;;;15.69;60.62;97757.47;6273942;22;20322;-73
2022/04/10 01:33:56;;;;;;;0.00;0.00;;;;;;;15.65;60.54;97764.66;6274092;22;20019;-73
2022/04/10 01:36:23;;;;;;;;;;;;;;;15.64;60.34;97768.50;6274822;22;20412;-73
2022/04/10 01:38:50;;;;;;;0.10;0.10;;;;;;;15.64;60.49;97751.53;6273751;22;19965;-73
2022/04/10 01:41:16;;;;;;;0.10;0.10;;;;;;;15.62;60.66;97748.41;6273917;22;20330;-73
2022/04/10 01:43:45;;;;;;;0.10;0.10;;;;;;;15.61;60.54;97742.25;6273992;22;19999;-73
2022/04/10 01:46:14;;;;;;;0.10;0.10;;;;;;;15.52;60.85;97736.97;6274108;22;20004;-73
2022/04/10 01:48:40;;;;;;;0.10;0.10;;;;;;;15.47;61.04;97742.59;6274092;22;20000;-73
2022/04/10 01:51:06;;;;;;;0.10;0.10;;;;;;;15.42;60.67;97734.75;6273812;22;20452;-73
2022/04/10 01:53:32;;;;;;;0.03;0.03;;;;;;;15.44;61.10;97739.78;6273857;22;20098;-74
2022/04/10 01:55:57;;;;;;;0.13;0.13;;;;;;;15.39;61.42;97746.19;6273827;22;20035;-73
2022/04/10 01:58:22;;;;;;;0.10;0.10;;;;;;;15.38;61.59;97744.66;6273810;22;20461;-74
2022/04/10 02:00:48;;;;;;;0.10;0.10;;;;;;;15.33;61.59;97744.84;6273552;22;20079;-73
2022/04/10 02:03:13;;;;;;;0.10;0.10;;;;;;;15.30;62.10;97740.16;6274085;22;20010;-73
2022/04/10 02:05:39;;;;;;;0.38;0.38;;;;;;;15.26;62.48;97747.34;6273978;22;19999;-73
2022/04/10 02:08:04;;;;;;;0.00;0.00;;;;;;;15.21;62.96;97746.44;6273850;22;20007;-73
2022/04/10 02:10:30;;;;;;;0.00;0.00;;;;;;;15.19;62.96;97745.22;6273711;22;20004;-73
2022/04/10 02:12:55;;;;;;;0.10;0.10;;;;;;;15.17;62.97;97742.88;6273758;22;20004;-73
2022/04/10 02:15:21;;;;;;;0.10;0.10;;;;;;;15.15;63.44;97744.34;6273518;22;20341;-74
2022/04/10 02:17:47;;;;;;;0.10;0.10;;;;;;;15.09;64.01;97726.81;6273533;22;20023;-73
2022/04/10 02:20:13;;;;;;;0.10;0.10;;;;;;;15.07;64.35;97737.16;6273964;22;20011;-73
2022/04/10 02:22:38;;;;;;;0.10;0.10;;;;;;;15.06;64.56;97733.66;6246866;22;20030;-73
2022/04/10 02:25:04;;;;;;;0.00;0.00;;;;;;;15.06;64.54;97739.06;6273685;22;19999;-73
2022/04/10 02:27:30;;;;;;;0.00;0.00;;;;;;;15.00;64.94;97735.00;6246840;22;20441;-73
2022/04/10 02:29:55;;;;;;;0.00;0.00;;;;;;;15.00;64.98;97729.63;6273361;22;20000;-73
2022/04/10 02:32:20;;;;;;;0.10;0.10;;;;;;;14.96;65.15;97726.81;6273991;22;20007;-73
2022/04/10 02:34:46;;;;;;;0.00;0.00;;;;;;;15.05;65.50;97745.59;6273693;22;20603;-73
2022/04/10 02:37:11;;;;;;;0.00;0.00;;;;;;;15.01;65.70;97733.91;6273921;22;20011;-73
2022/04/10 02:39:37;;;;;;;0.00;0.00;;;;;;;15.00;65.62;97733.13;6273859;22;20338;-73
2022/04/10 02:42:02;;;;;;;0.10;0.10;;;;;;;14.98;65.96;97727.28;6273378;22;20053;-73
2022/04/10 02:44:28;;;;;;;0.00;0.00;;;;;;;14.96;66.23;97732.22;6273834;22;20000;-73
2022/04/10 02:46:53;;;;;;;0.10;0.10;;;;;;;14.97;66.18;97731.09;6273573;22;20368;-73
2022/04/10 02:49:19;;;;;;;0.00;0.00;;;;;;;14.98;66.30;97735.38;6273881;22;20452;-73
2022/04/10 02:51:47;;;;;;;0.00;0.00;;;;;;;14.99;66.17;97731.56;6273676;22;20344;-73
2022/04/10 02:54:13;;;;;;;0.10;0.10;;;;;;;15.08;66.09;97733.34;6273898;22;20030;-73
2022/04/10 02:56:38;;;;;;;0.10;0.10;;;;;;;15.09;66.62;97727.63;6246798;22;20449;-73
2022/04/10 02:59:04;;;;;;;0.00;0.00;;;;;;;14.98;66.87;97719.22;6273570;22;20008;-73
2022/04/10 03:01:29;;;;;;;0.05;0.05;;;;;;;14.95;67.28;97709.13;6273734;22;19999;-73
2022/04/10 03:03:55;;;;;;;0.10;0.10;;;;;;;14.95;67.17;97713.72;6273169;22;20087;-73
2022/04/10 03:06:20;;;;;;;0.00;0.00;;;;;;;14.96;67.22;97718.75;6275329;22;20000;-73
2022/04/10 03:08:45;;;;;;;0.10;0.10;;;;;;;15.03;67.01;97721.66;6275445;22;20023;-73
2022/04/10 03:11:11;;;;;;;0.08;0.08;;;;;;;15.11;66.99;97724.59;6275692;22;20071;-73
2022/04/10 03:13:36;;;;;;;0.20;0.20;;;;;;;14.98;67.49;97718.44;6275748;22;20010;-73
2022/04/10 03:16:02;;;;;;;0.10;0.10;;;;;;;14.98;67.45;97719.22;6275128;22;20506;-73
2022/04/10 03:18:27;;;;;;;0.03;0.03;;;;;;;14.99;67.06;97717.28;6275322;22;20010;-73
2022/04/10 03:20:53;;;;;;;0.10;0.10;;;;;;;14.95;67.20;97717.22;6247724;22;20008;-73
2022/04/10 03:23:18;;;;;;;0.00;0.00;;;;;;;14.97;67.07;97716.88;6275653;22;20003;-73
2022/04/10 03:25:44;;;;;;;0.10;0.10;;;;;;;14.98;66.94;97726.50;6275520;22;20000;-73
2022/04/10 03:28:09;;;;;;;0.00;0.00;;;;;;;14.92;67.39;97717.88;6275320;22;20011;-73
2022/04/10 03:30:35;;;;;;;0.08;0.08;;;;;;;14.94;67.29;97723.72;6275594;22;20318;-73
2022/04/10 03:33:00;;;;;;;0.10;0.10;;;;;;;14.94;67.58;97718.31;6275277;22;20371;-73
2022/04/10 03:35:25;;;;;;;0.00;0.00;;;;;;;14.95;68.08;97724.47;6275503;22;20004;-73
2022/04/10 03:37:51;;;;;;;0.00;0.00;;;;;;;14.87;68.15;97721.56;6274932;22;20006;-73
2022/04/10 03:40:16;;;;;;;0.40;0.40;;;;;;;14.92;68.21;97727.88;6275437;22;20011;-73
2022/04/10 03:42:42;;;;;;;0.17;0.17;;;;;;;14.96;68.36;97732.22;6275482;22;20337;-73
2022/04/10 03:45:09;;;;;;;0.00;0.00;;;;;;;14.97;68.78;97723.03;6275012;22;20057;-73
2022/04/10 03:47:34;;;;;;;0.10;0.10;;;;;;;14.93;69.33;97715.94;6275306;22;20057;-73
2022/04/10 03:49:59;;;;;;;0.08;0.08;;;;;;;14.92;69.18;97714.41;6275090;22;20008;-73
2022/04/10 03:52:25;;;;;;;0.52;0.52;;;;;;;14.96;69.56;97717.97;6275305;22;20436;-73
2022/04/10 03:54:50;;;;;;;0.00;0.00;;;;;;;14.99;69.78;97717.28;6275068;22;20008;-73
2022/04/10 03:57:16;;;;;;;0.10;0.10;;;;;;;14.99;69.88;97725.38;6275296;22;20480;-73
2022/04/10 03:59:41;;;;;;;0.00;0.00;;;;;;;15.00;69.93;97714.28;6248004;22;20003;-73
2022/04/10 04:02:06;;;;;;;0.00;0.00;;;;;;;15.10;69.77;97728.38;6274675;22;20061;-73
2022/04/10 04:04:32;;;;;;;0.10;0.10;;;;;;;15.13;70.22;97722.34;6275120;22;20094;-73
2022/04/10 04:06:58;;;;;;;0.00;0.00;;;;;;;15.28;70.54;97718.16;6274901;22;20010;-73
2022/04/10 04:09:24;;;;;;;0.08;0.08;;;;;;;15.46;70.34;97729.47;6275177;22;20007;-73
2022/04/10 04:11:49;;;;;;;0.00;0.00;;;;;;;15.68;70.34;97717.38;6274856;22;20000;-73
2022/04/10 04:14:15;;;;;;;0.00;0.00;;;;;;;15.89;70.06;97709.13;6275207;22;20421;-73
2022/04/10 04:16:41;;;;;;;0.00;0.00;;;;;;;16.12;69.17;97705.88;6274613;22;20422;-73
2022/04/10 04:19:07;;;;;;;0.10;0.10;;;;;;;16.47;68.89;97707.94;6274756;22;20000;-73
2022/04/10 04:21:32;;;;;;;0.10;0.10;;;;;;;16.82;67.55;97707.22;6275110;22;20186;-73
2022/04/10 04:23:58;;;;;;;0.00;0.00;;;;;;;17.17;66.75;97705.72;6274425;22;20008;-73
2022/04/10 04:26:23;;;;;;;0.10;0.10;;;;;;;17.54;65.48;97700.72;6274946;22;20095;-73
2022/04/10 04:28:49;;;;;;;1.08;1.08;;;;;;;17.94;63.66;97693.34;6275007;22;20429;-73
2022/04/10 04:31:14;;;;;;;0.10;0.10;;;;;;;18.26;62.55;97693.19;6274430;22;20003;-73
2022/04/10 04:33:39;;;;;;;0.10;0.10;;;;;;;18.60;62.37;97701.47;6274952;22;20445;-75
2022/04/10 04:36:05;;;;;;;0.10;0.10;;;;;;;18.89;60.19;97707.34;6274571;22;20014;-72
2022/04/10 04:38:30;;;;;;;0.10;0.10;;;;;;;19.11;59.57;97710.41;6274890;22;20003;-73
2022/04/10 04:40:56;;;;;;;0.20;0.20;;;;;;;19.26;58.79;97709.47;6274155;22;20038;-73
2022/04/10 04:43:21;;;;;;;3.13;1.25;;;;;;;19.30;58.56;97715.69;6274781;22;20004;-73
2022/04/10 04:45:46;;;;;;;0.10;0.10;;;;;;;19.29;58.32;97724.97;6274661;22;20004;-73
2022/04/10 04:48:12;;;;;;;0.10;0.10;;;;;;;19.21;58.18;97736.84;6274506;22;20004;-73
2022/04/10 04:50:37;;;;;;;0.10;0.10;;;;;;;19.03;58.49;97736.63;6274716;22;20000;-73
2022/04/10 04:53:03;;;;;;;0.45;0.45;;;;;;;18.86;58.96;97738.66;6274590;22;20003;-73
2022/04/10 04:55:28;;;;;;;0.10;0.10;;;;;;;18.64;59.51;97734.00;6274717;22;20019;-73
2022/04/10 04:57:53;;;;;;;0.03;0.03;;;;;;;18.49;60.01;97733.81;6274099;22;20008;-73
2022/04/10 05:00:19;;;;;;;0.10;0.10;;;;;;;18.35;60.19;97714.59;6274338;22;20008;-73
2022/04/10 05:02:45;;;;;;;0.52;0.40;;;;;;;18.13;60.94;97708.81;6274618;22;20007;-75
2022/04/10 05:05:10;;;;;;;0.15;0.15;;;;;;;17.95;61.50;97707.69;6274335;22;20030;-73
2022/04/10 05:07:36;;;;;;;0.10;0.10;;;;;;;17.82;62.18;97707.81;6274555;22;20087;-73
2022/04/10 05:10:01;;;;;;;0.00;0.00;;;;;;;17.65;62.68;97703.63;6274255;22;20435;-73
2022/04/10 05:12:28;;;;;;;0.00;0.00;;;;;;;17.50;63.36;97699.84;6274148;22;20070;-73
2022/04/10 05:14:53;;;;;;;0.05;0.05;;;;;;;17.41;63.78;97691.16;6274123;22;20039;-73
2022/04/10 05:17:19;;;;;;;0.00;0.00;;;;;;;17.27;64.02;97705.13;6274609;22;20012;-75
2022/04/10 05:19:44;;;;;;;0.10;0.10;;;;;;;17.20;64.85;97699.59;6274404;22;20007;-74
2022/04/10 05:22:10;;;;;;;0.40;0.40;;;;;;;17.09;65.19;97697.44;6274159;22;20011;-75
2022/04/10 05:24:35;;;;;;;0.10;0.10;;;;;;;17.00;65.63;97686.03;6274321;22;20004;-75
2022/04/10 05:27:00;;;;;;;1.05;1.05;;;;;;;16.93;66.10;97704.78;6274075;22;20057;-75
2022/04/10 05:29:26;;;;;;;0.10;0.10;;;;;;;16.88;66.13;97708.53;6274372;22;20031;-73
2022/04/10 05:31:51;;;;;;;0.10;0.10;;;;;;;16.84;66.43;97699.53;6274062;22;20011;-75
2022/04/10 05:34:17;;;;;;;0.10;0.10;;;;;;;16.88;66.50;97707.72;6273986;22;20007;-75
2022/04/10 05:36:42;;;;;;;0.38;0.38;;;;;;;16.85;66.76;97711.13;6247153;22;20011;-73
2022/04/10 05:39:08;;;;;;;0.10;0.10;;;;;;;16.86;66.74;97712.72;6273951;22;20050;-75
2022/04/10 05:41:33;;;;;;;0.28;0.28;;;;;;;16.87;66.90;97709.66;6247165;22;20006;-75
2022/04/10 05:43:58;;;;;;;0.00;0.00;;;;;;;16.85;66.63;97706.50;6273942;22;20090;-74
2022/04/10 05:46:25;;;;;;;0.10;0.10;;;;;;;16.86;66.39;97699.97;6274068;22;20039;-76
2022/04/10 05:48:51;;;;;;;0.00;0.00;;;;;;;16.86;66.61;97701.91;6274188;22;20007;-75
2022/04/10 05:51:16;;;;;;;0.93;0.57;;;;;;;16.86;66.31;97710.78;6273587;22;20353;-74
2022/04/10 05:53:42;;;;;;;0.10;0.10;;;;;;;16.87;66.63;97706.16;6273666;22;20152;-74
2022/04/10 05:56:07;;;;;;;0.10;0.10;;;;;;;16.87;66.51;97703.44;6274054;22;20004;-75
2022/04/10 05:58:33;;;;;;;0.00;0.00;;;;;;;16.86;66.64;97708.09;6274055;22;20477;-75
2022/04/10 06:00:58;;;;;;;0.10;0.10;;;;;;;16.85;66.48;97706.50;6273577;22;20008;-74
2022/04/10 06:03:24;;;;;;;0.03;0.03;;;;;;;16.83;66.34;97699.91;6273279;22;20015;-74
2022/04/10 06:05:49;;;;;;;0.00;0.00;;;;;;;16.81;65.88;97711.06;6273185;22;20003;-73
2022/04/10 06:08:14;;;;;;;0.10;0.10;;;;;;;16.81;66.16;97705.66;6272930;22;19999;-74
2022/04/10 06:10:40;;;;;;;0.00;0.00;;;;;;;16.83;66.06;97710.69;6273220;22;19999;-74
2022/04/10 06:13:15;;;;;;;0.00;0.00;;;;;;;16.77;66.24;97699.38;6272867;22;20046;-75
2022/04/10 06:15:40;;;;;;;0.05;0.05;;;;;;;16.73;66.45;97699.28;6272458;22;20369;-76
2022/04/10 06:18:07;;;;;;;0.40;0.40;;;;;;;16.73;66.66;97701.22;6272934;22;19999;-76
2022/04/10 06:20:33;;;;;;;0.10;0.10;;;;;;;16.73;66.30;97701.22;6273205;22;20019;-76
2022/04/10 06:22:58;;;;;;;0.77;0.77;;;;;;;16.78;65.91;97701.75;6272867;22;20410;-73
2022/04/10 06:25:24;;;;;;;0.00;0.00;;;;;;;16.80;66.29;97698.69;6273038;22;20008;-75
2022/04/10 06:27:49;;;;;;;0.38;0.38;;;;;;;16.79;66.09;97697.88;6273041;22;20068;-75
2022/04/10 06:30:15;;;;;;;0.00;0.00;;;;;;;16.84;65.90;97714.97;6272591;22;20341;-75
2022/04/10 06:32:40;;;;;;;0.10;0.10;;;;;;;16.84;65.89;97702.25;6273132;22;20496;-75
2022/04/10 06:35:06;;;;;;;0.13;0.13;;;;;;;16.85;65.55;97709.22;6272272;22;20077;-75
2022/04/10 06:37:31;;;;;;;0.08;0.08;;;;;;;16.91;65.61;97709.75;6245761;22;20008;-75
2022/04/10 06:39:57;;;;;;;0.10;0.10;;;;;;;16.88;65.25;97700.44;6273468;22;20506;-74
2022/04/10 06:42:22;;;;;;;0.00;0.00;;;;;;;16.91;65.30;97699.72;6274933;22;20122;-75
2022/04/10 06:44:48;;;;;;;0.00;0.00;;;;;;;16.97;64.94;97702.97;6275007;22;20011;-75
2022/04/10 06:47:13;;;;;;;0.00;0.00;;;;;;;16.95;65.15;97700.63;6275296;22;20007;-75
2022/04/10 06:49:38;;;;;;;0.00;0.00;;;;;;;17.00;64.84;97713.03;6274982;22;20010;-75
2022/04/10 06:52:04;;;;;;;0.10;0.10;;;;;;;17.02;64.71;97718.88;6247690;22;20008;-75
2022/04/10 06:54:29;;;;;;;0.22;0.22;;;;;;;17.01;64.54;97703.03;6274924;22;20010;-76
2022/04/10 06:56:55;;;;;;;0.00;0.00;;;;;;;17.06;64.75;97710.88;6275029;22;20310;-75
2022/04/10 06:59:20;;;;;;;0.00;0.00;;;;;;;17.08;64.81;97709.38;6274816;22;20061;-75
2022/04/10 07:01:45;;;;;;;0.00;0.00;;;;;;;17.12;63.86;97717.56;6275357;22;19999;-75
2022/04/10 07:04:11;;;;;;;0.63;0.63;;;;;;;17.11;64.14;97711.38;6275572;22;20003;-75
2022/04/10 07:06:37;;;;;;;0.45;0.45;;;;;;;17.20;64.10;97721.19;6275645;22;20002;-75
2022/04/10 07:09:03;;;;;;;0.10;0.10;;;;;;;17.20;63.98;97722.00;6248265;22;20078;-74
2022/04/10 07:11:28;;;;;;;0.00;0.00;;;;;;;17.24;63.59;97719.38;6275684;22;20003;-74
2022/04/10 07:13:53;;;;;;;0.00;0.00;;;;;;;17.32;63.37;97728.41;6248596;22;20437;-75
2022/04/10 07:16:19;;;;;;;0.40;0.40;;;;;;;17.34;63.29;97724.22;6247882;22;20077;-75
2022/04/10 07:18:44;;;;;;;0.03;0.03;;;;;;;17.37;62.95;97731.63;6275705;22;20011;-75
2022/04/10 07:21:10;;;;;;;0.00;0.00;;;;;;;17.43;62.78;97732.13;6275371;22;20425;-76
2022/04/10 07:23:45;;;;;;;0.10;0.10;;;;;;;17.53;62.85;97736.22;6275241;22;20026;-74
2022/04/10 07:26:13;;;;;;;0.00;0.00;;;;;;;17.59;62.27;97732.09;6274943;22;20065;-74
2022/04/10 07:28:38;;;;;;;0.10;0.10;;;;;;;17.65;61.95;97722.56;6275156;22;20430;-74
2022/04/10 07:31:05;;;;;;;0.00;0.00;;;;;;;17.72;61.32;97727.31;6275343;22;20022;-75
2022/04/10 07:33:30;;;;;;;0.00;0.00;;;;;;;17.74;61.22;97706.88;6275550;22;20004;-75
2022/04/10 07:35:56;;;;;;;0.10;0.10;;;;;;;17.84;60.95;97712.88;6275562;22;20057;-75
2022/04/10 07:38:22;;;;;;;0.10;0.10;;;;;;;17.90;60.55;97704.09;6248133;22;20043;-75
2022/04/10 07:40:48;;;;;;;0.00;0.00;;;;;;;18.00;60.33;97702.00;6275338;22;20086;-75
2022/04/10 07:43:13;;;;;;;0.10;0.10;;;;;;;18.08;59.78;97711.81;6248067;22;20422;-75
2022/04/10 07:48:23;;;;;;;0.65;0.65;;;;;;;18.24;59.77;97704.34;6274772;22;20015;-73
2022/04/10 07:50:48;;;;;;;10.63;0.57;;;;;;;18.33;59.06;97704.13;6275128;22;20083;-75
2022/04/10 07:53:14;;;;;;;0.00;0.00;;;;;;;18.38;58.50;97698.44;6274423;22;20075;-75
2022/04/10 07:55:39;;;;;;;0.08;0.08;;;;;;;18.51;58.02;97700.94;6275162;22;20358;-75
2022/04/10 07:58:05;;;;;;;0.00;0.00;;;;;;;18.61;57.94;97705.75;6274624;22;20456;-74
2022/04/10 08:00:32;;;;;;;0.30;0.30;;;;;;;18.81;57.69;97703.75;6275239;22;20081;-74
2022/04/10 08:02:59;;;;;;;0.10;0.10;;;;;;;19.01;56.69;97696.31;6275241;22;20335;-75
2022/04/10 08:05:24;;;;;;;0.00;0.00;;;;;;;19.23;56.02;97703.97;6274805;22;20011;-75
2022/04/10 08:07:50;;;;;;;0.00;0.00;;;;;;;19.41;55.69;97710.41;6275183;22;20338;-75
2022/04/10 08:10:16;;;;;;;0.00;0.00;;;;;;;19.60;55.23;97716.84;6274885;22;20027;-75
2022/04/10 08:12:42;;;;;;;0.20;0.20;;;;;;;19.75;54.43;97705.03;6275019;22;20008;-76
2022/04/10 08:15:09;;;;;;;0.00;0.00;;;;;;;19.97;54.12;97711.50;6274740;22;20084;-75
2022/04/10 08:17:34;;;;;;;0.10;0.10;;;;;;;20.12;53.75;97714.38;6275031;22;20008;-75
2022/04/10 08:20:04;;;;;;;0.10;0.10;;;;;;;20.23;53.31;97717.97;6275090;22;20004;-76
2022/04/10 08:22:30;;;;;;;0.35;0.35;;;;;;;20.37;52.94;97711.09;6275057;22;20003;-76
2022/04/10 08:25:01;;;;;;;1.88;0.65;;;;;;;20.39;52.22;97700.66;6274506;22;20003;-75
2022/04/10 08:27:27;;;;;;;0.10;0.10;;;;;;;20.45;52.56;97691.00;6274386;22;20403;-75
2022/04/10 08:29:53;;;;;;;0.10;0.10;;;;;;;20.56;52.21;97693.81;6275025;22;20033;-75
2022/04/10 08:32:18;;;;;;;0.00;0.00;;;;;;;20.62;52.33;97693.09;6274740;22;20011;-75
2022/04/10 08:34:44;;;;;;;0.00;0.00;;;;;;;20.72;51.71;97686.19;6274992;22;20417;-75
2022/04/10 08:37:09;;;;;;;0.17;0.17;;;;;;;20.76;51.61;97684.31;6274633;22;20114;-75
2022/04/10 08:39:35;;;;;;;3.83;0.85;;;;;;;20.87;51.42;97673.50;6274848;22;20421;-76
2022/04/10 08:42:03;;;;;;;0.10;0.10;;;;;;;20.89;51.18;97670.41;6274389;22;20010;-75
2022/04/10 08:44:29;;;;;;;0.00;0.00;;;;;;;20.98;50.46;97665.41;6274628;22;20451;-75
2022/04/10 08:46:55;;;;;;;0.10;0.10;;;;;;;20.93;50.40;97657.63;6274631;22;20013;-75
2022/04/10 08:49:21;;;;;;;0.00;0.00;;;;;;;21.01;50.46;97661.16;6274469;22;20086;-75
2022/04/10 08:51:48;;;;;;;1.33;0.55;;;;;;;21.09;50.03;97663.53;6274643;22;20000;-75
2022/04/10 08:54:13;;;;;;;0.43;0.43;;;;;;;21.14;50.38;97672.50;6274427;22;20011;-75
2022/04/10 08:56:39;;;;;;;0.10;0.10;;;;;;;21.17;49.94;97641.84;6274631;22;20412;-75
2022/04/10 08:59:04;;;;;;;0.00;0.00;;;;;;;21.25;49.31;97649.66;6274696;22;20008;-75
2022/04/10 09:01:30;;;;;;;0.00;0.00;;;;;;;21.37;48.61;97656.69;6274221;22;20007;-75
2022/04/10 09:03:55;;;;;;;0.20;0.20;;;;;;;21.46;47.70;97656.34;6274038;22;20021;-75
2022/04/10 09:06:21;;;;;;;0.10;0.10;;;;;;;21.56;47.48;97658.34;6273756;22;19999;-75
2022/04/10 09:08:46;;;;;;;0.03;0.03;;;;;;;21.67;47.28;97652.16;6274578;22;20014;-75
2022/04/10 09:11:12;;;;;;;0.10;0.10;;;;;;;21.76;46.68;97636.22;6274305;22;20010;-75
2022/04/10 09:13:49;;;;;;;0.00;0.00;;;;;;;21.79;45.18;97651.81;6274427;22;20315;-75
2022/04/10 09:16:21;;;;;;;0.10;0.10;;;;;;;21.89;45.61;97637.44;6273991;22;20019;-75
2022/04/10 09:18:50;;;;;;;0.00;0.00;;;;;;;21.97;44.70;97629.28;6274402;22;20010;-75
2022/04/10 09:21:17;;;;;;;0.00;0.00;;;;;;;22.02;44.53;97631.59;6274131;22;20074;-75
2022/04/10 09:23:51;;;;;;;2.30;2.10;;;;;;;22.10;44.18;97624.25;6274203;22;20038;-75
2022/04/10 09:26:16;;;;;;;0.00;0.00;;;;;;;22.13;42.74;97626.19;6273564;22;20071;-75
2022/04/10 09:28:48;;;;;;;0.00;0.00;;;;;;;22.18;43.21;97639.41;6273850;22;20023;-75
2022/04/10 09:31:44;;;;;;;0.15;0.15;;;;;;;22.21;42.79;97630.47;6273842;22;20000;-75
2022/04/10 09:34:22;;;;;;;0.00;0.00;;;;;;;22.26;42.42;97629.31;6247506;22;20010;-75
2022/04/10 09:36:59;;;;;;;0.00;0.00;;;;;;;22.32;42.49;97633.97;6246697;22;20012;-75
2022/04/10 09:39:33;;;;;;;0.00;0.00;;;;;;;22.32;42.62;97614.91;6274069;22;20487;-75
2022/04/10 09:42:16;;;;;;;3.75;1.30;;;;;;;22.29;42.25;97618.41;6274285;22;20027;-75
2022/04/10 09:44:41;;;;;;;0.00;0.00;;;;;;;22.36;42.09;97637.47;6274184;22;19999;-75
2022/04/10 09:47:09;;;;;;;0.10;0.10;;;;;;;22.23;45.34;97626.19;6274202;22;19999;-75
2022/04/10 09:49:37;;;;;;;0.00;0.00;;;;;;;22.16;46.16;97642.53;6274172;22;20004;-75
2022/04/10 09:52:07;;;;;;;0.30;0.30;;;;;;;21.96;46.81;97635.88;6274098;22;20234;-75
2022/04/10 09:54:42;;;;;;;0.00;0.00;;;;;;;21.83;47.29;97649.84;6273924;22;20404;-75
2022/04/10 09:57:15;;;;;;;0.20;0.20;;;;;;;21.67;47.55;97660.31;6274069;22;20003;-75
2022/04/10 09:59:46;;;;;;;0.00;0.00;;;;;;;21.52;48.17;97673.84;6274000;22;20015;-75
2022/04/10 10:02:14;;;;;;;0.13;0.13;;;;;;;21.38;48.83;97687.38;6273550;22;20004;-75
2022/04/10 10:04:41;;;;;;;0.00;0.00;;;;;;;21.18;49.46;97684.16;6273989;22;20027;-75
2022/04/10 10:07:11;;;;;;;0.00;0.00;;;;;;;21.10;49.30;97686.84;6274055;22;20003;-74
2022/04/10 10:09:37;;;;;;;0.00;0.00;;;;;;;20.98;50.27;97684.44;6273988;22;20001;-75
2022/04/10 10:12:04;;;;;;;0.00;0.00;;;;;;;20.86;50.84;97679.31;6273809;22;20341;-75
2022/04/10 10:14:31;;;;;;;0.10;0.10;;;;;;;20.80;50.67;97689.75;6273419;22;20311;-75
2022/04/10 10:16:58;;;;;;;0.00;0.00;;;;;;;20.72;51.39;97685.44;6245807;22;20090;-74
2022/04/10 10:19:25;;;;;;;0.10;0.10;;;;;;;20.64;51.47;97673.69;6273115;22;20027;-76
2022/04/10 10:21:50;;;;;;;0.10;0.10;;;;;;;20.63;51.84;97677.59;6273615;22;20007;-73
2022/04/10 10:24:19;;;;;;;1.00;1.00;;;;;;;20.61;51.94;97679.88;6272510;22;20008;-73
2022/04/10 10:26:50;;;;;;;0.00;0.00;;;;;;;20.56;52.07;97672.09;6245950;22;20015;-74
2022/04/10 10:29:45;;;;;;;0.00;0.00;;;;;;;20.51;52.50;97669.69;6273158;22;20014;-75
2022/04/10 10:32:52;;;;;;;0.10;0.10;;;;;;;20.48;52.65;97658.47;6272420;22;20084;-77
2022/04/10 10:35:33;;;;;;;0.00;0.00;;;;;;;20.46;53.03;97662.72;6149305;23;20340;-75
2022/04/10 10:38:00;;;;;;;0.10;0.10;;;;;;;20.47;53.15;97651.47;6265291;22;20433;-75
2022/04/10 10:40:26;;;;;;;0.00;0.00;;;;;;;20.54;53.04;97660.81;6273461;22;20053;-75
2022/04/10 10:42:52;;;;;;;0.10;0.10;;;;;;;20.56;53.06;97653.84;6273174;22;20000;-76
2022/04/10 10:45:37;;;;;;;0.05;0.05;;;;;;;20.69;52.60;97653.53;6273199;22;20007;-77
2022/04/10 10:48:41;;;;;;;0.00;0.00;;;;;;;20.84;52.04;97644.38;6273345;22;20004;-77
2022/04/10 10:51:09;;;;;;;0.10;0.10;;;;;;;20.98;51.62;97638.22;6273734;22;19996;-77
2022/04/10 10:53:45;;;;;;;0.10;0.10;;;;;;;21.02;52.35;97646.41;6273132;22;20004;-77
2022/04/10 10:56:36;;;;;;;0.20;0.20;;;;;;;21.15;51.60;97647.63;6273759;22;20004;-78
2022/04/10 10:59:29;;;;;;;0.00;0.00;;;;;;;21.26;51.24;97631.38;6259567;22;20042;-77
2022/04/10 11:02:02;;;;;;;0.10;0.10;;;;;;;21.31;51.36;97622.09;6245922;22;20007;-77
2022/04/10 11:04:32;;;;;;;0.13;0.13;;;;;;;21.24;50.00;97604.59;6272873;22;20349;-78
2022/04/10 11:07:14;;;;;;;0.28;0.28;;;;;;;21.30;51.32;97610.44;6246405;22;20405;-77
2022/04/10 11:09:53;;;;;;;0.15;0.15;;;;;;;21.30;50.34;97605.00;6273487;22;20433;-77
2022/04/10 11:12:23;;;;;;;0.38;0.38;;;;;;;21.40;50.82;97603.47;6273456;22;20007;-77
2022/04/10 11:14:52;;;;;;;0.00;0.00;;;;;;;21.50;51.04;97600.00;6273383;22;20004;-76
2022/04/10 11:17:26;;;;;;;0.10;0.10;;;;;;;21.48;50.45;97613.19;6245584;22;20339;-76
2022/04/10 11:20:20;;;;;;;0.47;0.47;;;;;;;21.47;50.33;97611.66;6273450;22;20000;-76
2022/04/10 11:22:52;;;;;;;0.10;0.10;;;;;;;21.45;50.63;97613.97;6269264;22;20452;-75
2022/04/10 11:25:19;;;;;;;0.00;0.00;;;;;;;21.46;50.73;97610.09;6270524;22;20008;-76
2022/04/10 11:27:57;;;;;;;0.00;0.00;;;;;;;21.42;51.07;97620.97;6273423;22;20340;-77
2022/04/10 11:30:27;;;;;;;0.00;0.00;;;;;;;21.23;50.86;97605.75;6274726;22;20004;-81
2022/04/10 11:33:05;;;;;;;0.52;0.52;;;;;;;21.28;51.42;97610.03;6273967;22;20012;-79
2022/04/10 11:35:33;;;;;;;0.00;0.00;;;;;;;21.24;49.66;97610.03;6273877;22;20004;-80
2022/04/10 11:38:11;;;;;;;0.20;0.20;;;;;;;21.11;50.00;97604.13;6273084;22;20061;-77